sensor_id;sensor_type;location;lat;lon;timestamp;pressure;altitude;pressure_sealevel;temperature;humidity
63654;BME280;49809;47.418;19.080;2023-07-22T00:02:08;100042.00;;;16.95;100.00
63654;BME280;49809;47.418;19.080;2023-07-22T00:05:28;100028.53;;;16.87;100.00
63654;BME280;49809;47.418;19.080;2023-07-22T00:09:02;100020.44;;;16.78;100.00
63654;BME280;49809;47.418;19.080;2023-07-22T00:12:40;100013.69;;;16.81;100.00
63654;BME280;49809;47.418;19.080;2023-07-22T00:16:19;100018.84;;;16.77;100.00
63654;BME280;49809;47.418;19.080;2023-07-22T00:19:47;100033.09;;;16.86;100.00
63654;BME280;49809;47.418;19.080;2023-07-22T00:23:10;100033.09;;;16.86;100.00
63654;BME280;49809;47.418;19.080;2023-07-22T00:26:30;100034.78;;;16.82;100.00
63654;BME280;49809;47.418;19.080;2023-07-22T00:29:49;100041.72;;;16.83;100.00
63654;BME280;49809;47.418;19.080;2023-07-22T00:33:19;100040.75;;;16.79;100.00
63654;BME280;49809;47.418;19.080;2023-07-22T00:36:39;100033.47;;;16.80;100.00
63654;BME280;49809;47.418;19.080;2023-07-22T00:39:57;100029.94;;;16.84;100.00
63654;BME280;49809;47.418;19.080;2023-07-22T00:43:35;100020.22;;;16.88;100.00
63654;BME280;49809;47.418;19.080;2023-07-22T00:47:17;100023.00;;;16.83;100.00
63654;BME280;49809;47.418;19.080;2023-07-22T00:50:51;100030.72;;;16.85;100.00
63654;BME280;49809;47.418;19.080;2023-07-22T00:54:22;100044.88;;;16.85;100.00
63654;BME280;49809;47.418;19.080;2023-07-22T00:57:59;100052.09;;;16.85;100.00
63654;BME280;49809;47.418;19.080;2023-07-22T01:01:26;100059.62;;;16.83;100.00
63654;BME280;49809;47.418;19.080;2023-07-22T01:04:59;100083.50;;;16.93;100.00
63654;BME280;49809;47.418;19.080;2023-07-22T01:08:25;100073.50;;;16.99;100.00
63654;BME280;49809;47.418;19.080;2023-07-22T01:11:45;100077.44;;;17.01;100.00
63654;BME280;49809;47.418;19.080;2023-07-22T01:15:11;100077.25;;;16.98;100.00
63654;BME280;49809;47.418;19.080;2023-07-22T01:18:42;100075.94;;;16.95;100.00
63654;BME280;49809;47.418;19.080;2023-07-22T01:22:14;100079.22;;;16.92;100.00
63654;BME280;49809;47.418;19.080;2023-07-22T01:25:49;100097.06;;;16.97;100.00
63654;BME280;49809;47.418;19.080;2023-07-22T01:29:12;100094.87;;;16.99;100.00
63654;BME280;49809;47.418;19.080;2023-07-22T01:32:48;100087.94;;;16.98;100.00
63654;BME280;49809;47.418;19.080;2023-07-22T01:36:22;100083.19;;;16.94;100.00
63654;BME280;49809;47.418;19.080;2023-07-22T01:39:58;100080.59;;;16.89;100.00
63654;BME280;49809;47.418;19.080;2023-07-22T01:43:28;100086.56;;;16.86;100.00
63654;BME280;49809;47.418;19.080;2023-07-22T01:47:02;100099.62;;;16.88;100.00
63654;BME280;49809;47.418;19.080;2023-07-22T01:50:24;100105.37;;;16.81;100.00
63654;BME280;49809;47.418;19.080;2023-07-22T01:54:01;100117.84;;;16.72;100.00
63654;BME280;49809;47.418;19.080;2023-07-22T01:57:34;100125.47;;;16.65;100.00
63654;BME280;49809;47.418;19.080;2023-07-22T02:01:03;100125.47;;;16.65;100.00
63654;BME280;49809;47.418;19.080;2023-07-22T02:04:38;100128.72;;;16.62;100.00
63654;BME280;49809;47.418;19.080;2023-07-22T02:08:15;100121.00;;;16.61;100.00
63654;BME280;49809;47.418;19.080;2023-07-22T02:11:46;100127.12;;;16.61;100.00
63654;BME280;49809;47.418;19.080;2023-07-22T02:15:29;100137.72;;;16.66;100.00
63654;BME280;49809;47.418;19.080;2023-07-22T02:19:06;100138.63;;;16.62;100.00
63654;BME280;49809;47.418;19.080;2023-07-22T02:22:29;100150.38;;;16.61;100.00
63654;BME280;49809;47.418;19.080;2023-07-22T02:26:08;100151.19;;;16.61;100.00
63654;BME280;49809;47.418;19.080;2023-07-22T02:29:38;100153.91;;;16.56;100.00
63654;BME280;49809;47.418;19.080;2023-07-22T02:33:16;100156.66;;;16.51;100.00
63654;BME280;49809;47.418;19.080;2023-07-22T02:37:23;100154.00;;;16.51;100.00
63654;BME280;49809;47.418;19.080;2023-07-22T02:41:03;100153.50;;;16.49;100.00
63654;BME280;49809;47.418;19.080;2023-07-22T02:44:27;100156.28;;;16.44;100.00
63654;BME280;49809;47.418;19.080;2023-07-22T02:47:58;100164.28;;;16.44;100.00
63654;BME280;49809;47.418;19.080;2023-07-22T02:51:24;100175.56;;;16.41;100.00
63654;BME280;49809;47.418;19.080;2023-07-22T02:58:30;100172.47;;;16.34;100.00
63654;BME280;49809;47.418;19.080;2023-07-22T03:02:06;100182.63;;;16.32;100.00
63654;BME280;49809;47.418;19.080;2023-07-22T03:05:30;100192.25;;;16.33;100.00
63654;BME280;49809;47.418;19.080;2023-07-22T03:09:12;100196.50;;;16.34;100.00
63654;BME280;49809;47.418;19.080;2023-07-22T03:12:38;100198.66;;;16.32;100.00
63654;BME280;49809;47.418;19.080;2023-07-22T03:16:18;100202.91;;;16.33;100.00
63654;BME280;49809;47.418;19.080;2023-07-22T03:23:31;100195.47;;;16.48;100.00
63654;BME280;49809;47.418;19.080;2023-07-22T03:27:09;100203.13;;;16.55;100.00
63654;BME280;49809;47.418;19.080;2023-07-22T03:30:42;100205.72;;;16.60;100.00
63654;BME280;49809;47.418;19.080;2023-07-22T03:34:30;100206.72;;;16.64;100.00
63654;BME280;49809;47.418;19.080;2023-07-22T03:37:52;100204.38;;;16.76;100.00
63654;BME280;49809;47.418;19.080;2023-07-22T03:41:24;100200.69;;;16.72;100.00
63654;BME280;49809;47.418;19.080;2023-07-22T03:45:03;100201.22;;;16.74;100.00
63654;BME280;49809;47.418;19.080;2023-07-22T03:48:37;100207.03;;;16.76;100.00
63654;BME280;49809;47.418;19.080;2023-07-22T03:52:08;100214.69;;;16.83;100.00
63654;BME280;49809;47.418;19.080;2023-07-22T03:55:46;100214.69;;;16.83;100.00
63654;BME280;49809;47.418;19.080;2023-07-22T03:59:10;100214.97;;;16.81;100.00
63654;BME280;49809;47.418;19.080;2023-07-22T04:02:30;100222.50;;;16.79;100.00
63654;BME280;49809;47.418;19.080;2023-07-22T04:05:57;100221.47;;;16.75;100.00
63654;BME280;49809;47.418;19.080;2023-07-22T04:09:38;100219.84;;;16.79;100.00
63654;BME280;49809;47.418;19.080;2023-07-22T04:13:24;100213.47;;;16.75;100.00
63654;BME280;49809;47.418;19.080;2023-07-22T04:16:52;100210.94;;;16.84;100.00
63654;BME280;49809;47.418;19.080;2023-07-22T04:20:47;100208.47;;;16.87;100.00
63654;BME280;49809;47.418;19.080;2023-07-22T04:24:42;100208.84;;;16.94;100.00
63654;BME280;49809;47.418;19.080;2023-07-22T04:28:11;100205.00;;;17.01;100.00
63654;BME280;49809;47.418;19.080;2023-07-22T04:31:39;100211.56;;;17.08;100.00
63654;BME280;49809;47.418;19.080;2023-07-22T04:35:09;100210.97;;;17.11;100.00
63654;BME280;49809;47.418;19.080;2023-07-22T04:38:52;100213.81;;;17.15;100.00
63654;BME280;49809;47.418;19.080;2023-07-22T04:42:17;100208.19;;;17.30;100.00
63654;BME280;49809;47.418;19.080;2023-07-22T04:45:54;100212.56;;;17.26;100.00
63654;BME280;49809;47.418;19.080;2023-07-22T04:49:30;100215.03;;;17.36;100.00
63654;BME280;49809;47.418;19.080;2023-07-22T04:53:02;100216.41;;;17.47;100.00
63654;BME280;49809;47.418;19.080;2023-07-22T04:56:33;100223.75;;;17.55;100.00
63654;BME280;49809;47.418;19.080;2023-07-22T05:00:22;100228.81;;;17.70;100.00
63654;BME280;49809;47.418;19.080;2023-07-22T05:03:56;100219.09;;;17.74;100.00
63654;BME280;49809;47.418;19.080;2023-07-22T05:07:30;100225.81;;;17.86;100.00
63654;BME280;49809;47.418;19.080;2023-07-22T05:11:02;100230.84;;;18.01;100.00
63654;BME280;49809;47.418;19.080;2023-07-22T05:14:50;100226.94;;;18.07;100.00
63654;BME280;49809;47.418;19.080;2023-07-22T05:45:03;100248.16;;;19.06;100.00
63654;BME280;49809;47.418;19.080;2023-07-22T06:08:35;100262.31;;;19.77;94.74
63654;BME280;49809;47.418;19.080;2023-07-22T06:12:55;100265.03;;;19.94;94.92
63654;BME280;49809;47.418;19.080;2023-07-22T06:16:43;100264.75;;;20.04;91.70
63654;BME280;49809;47.418;19.080;2023-07-22T06:20:45;100268.03;;;20.10;91.39
63654;BME280;49809;47.418;19.080;2023-07-22T06:39:12;100277.25;;;20.69;86.18
63654;BME280;49809;47.418;19.080;2023-07-22T06:42:57;100280.09;;;20.81;85.86
63654;BME280;49809;47.418;19.080;2023-07-22T06:46:50;100276.84;;;20.96;84.31
63654;BME280;49809;47.418;19.080;2023-07-22T06:54:45;100279.91;;;21.41;82.20
63654;BME280;49809;47.418;19.080;2023-07-22T07:02:16;100284.81;;;21.77;79.61
63654;BME280;49809;47.418;19.080;2023-07-22T07:06:02;100282.50;;;21.96;78.90
63654;BME280;49809;47.418;19.080;2023-07-22T07:09:36;100290.75;;;22.21;76.91
63654;BME280;49809;47.418;19.080;2023-07-22T07:13:27;100291.47;;;22.30;75.61
63654;BME280;49809;47.418;19.080;2023-07-22T07:32:48;100296.56;;;23.91;71.10
63654;BME280;49809;47.418;19.080;2023-07-22T07:45:43;100306.19;;;24.96;67.21
63654;BME280;49809;47.418;19.080;2023-07-22T07:49:47;100309.28;;;25.41;63.92
63654;BME280;49809;47.418;19.080;2023-07-22T08:09:37;100344.91;;;28.72;51.70
63654;BME280;49809;47.418;19.080;2023-07-22T08:12:57;100351.63;;;28.52;49.69
63654;BME280;49809;47.418;19.080;2023-07-22T08:16:16;100355.53;;;28.51;48.04
63654;BME280;49809;47.418;19.080;2023-07-22T08:19:31;100368.63;;;28.72;49.28
63654;BME280;49809;47.418;19.080;2023-07-22T08:22:48;100365.75;;;28.61;49.65
63654;BME280;49809;47.418;19.080;2023-07-22T08:26:18;100371.91;;;28.84;45.44
63654;BME280;49809;47.418;19.080;2023-07-22T08:29:36;100381.34;;;28.94;45.65
63654;BME280;49809;47.418;19.080;2023-07-22T08:32:57;100382.06;;;29.68;46.03
63654;BME280;49809;47.418;19.080;2023-07-22T08:36:16;100389.47;;;30.15;45.13
63654;BME280;49809;47.418;19.080;2023-07-22T08:39:46;100394.16;;;30.22;44.28
63654;BME280;49809;47.418;19.080;2023-07-22T08:43:08;100394.44;;;30.72;42.57
63654;BME280;49809;47.418;19.080;2023-07-22T08:46:29;100392.66;;;30.32;44.12
63654;BME280;49809;47.418;19.080;2023-07-22T08:50:19;100391.06;;;31.03;43.09
63654;BME280;49809;47.418;19.080;2023-07-22T08:53:45;100393.06;;;31.27;40.74
63654;BME280;49809;47.418;19.080;2023-07-22T08:57:13;100396.19;;;32.28;39.63
63654;BME280;49809;47.418;19.080;2023-07-22T09:00:44;100409.78;;;29.70;44.63
63654;BME280;49809;47.418;19.080;2023-07-22T09:04:22;100406.53;;;30.63;42.35
63654;BME280;49809;47.418;19.080;2023-07-22T09:07:48;100407.94;;;31.55;39.93
63654;BME280;49809;47.418;19.080;2023-07-22T09:11:33;100407.53;;;30.41;40.57
63654;BME280;49809;47.418;19.080;2023-07-22T09:15:13;100412.12;;;30.23;40.99
63654;BME280;49809;47.418;19.080;2023-07-22T09:26:36;100418.06;;;31.22;38.31
63654;BME280;49809;47.418;19.080;2023-07-22T09:30:20;100421.44;;;30.15;39.55
63654;BME280;49809;47.418;19.080;2023-07-22T09:33:49;100424.31;;;31.30;37.62
63654;BME280;49809;47.418;19.080;2023-07-22T09:37:08;100423.63;;;31.75;37.66
63654;BME280;49809;47.418;19.080;2023-07-22T09:40:27;100432.72;;;30.75;38.67
63654;BME280;49809;47.418;19.080;2023-07-22T09:43:46;100413.81;;;31.46;37.39
63654;BME280;49809;47.418;19.080;2023-07-22T09:47:41;100418.03;;;32.53;35.78
63654;BME280;49809;47.418;19.080;2023-07-22T09:51:02;100419.69;;;31.73;38.03
63654;BME280;49809;47.418;19.080;2023-07-22T09:54:27;100425.94;;;32.09;35.23
63654;BME280;49809;47.418;19.080;2023-07-22T09:58:07;100425.84;;;32.55;34.81
63654;BME280;49809;47.418;19.080;2023-07-22T10:01:27;100400.41;;;33.38;32.61
63654;BME280;49809;47.418;19.080;2023-07-22T10:05:03;100395.34;;;32.46;34.78
63654;BME280;49809;47.418;19.080;2023-07-22T10:08:34;100411.53;;;33.09;34.13
63654;BME280;49809;47.418;19.080;2023-07-22T10:11:55;100410.94;;;33.43;34.45
63654;BME280;49809;47.418;19.080;2023-07-22T10:15:34;100416.63;;;33.73;33.30
63654;BME280;49809;47.418;19.080;2023-07-22T10:18:51;100419.59;;;32.44;35.60
63654;BME280;49809;47.418;19.080;2023-07-22T10:22:11;100425.88;;;33.93;32.67
63654;BME280;49809;47.418;19.080;2023-07-22T10:25:44;100427.47;;;32.42;33.23
63654;BME280;49809;47.418;19.080;2023-07-22T10:29:17;100430.00;;;34.09;33.23
63654;BME280;49809;47.418;19.080;2023-07-22T10:36:17;100431.53;;;33.65;33.18
63654;BME280;49809;47.418;19.080;2023-07-22T10:39:40;100436.34;;;32.85;32.84
63654;BME280;49809;47.418;19.080;2023-07-22T10:43:05;100430.78;;;32.99;33.90
63654;BME280;49809;47.418;19.080;2023-07-22T10:46:38;100428.69;;;32.12;35.13
63654;BME280;49809;47.418;19.080;2023-07-22T10:50:14;100421.53;;;32.61;34.96
63654;BME280;49809;47.418;19.080;2023-07-22T10:53:48;100413.00;;;31.52;35.51
63654;BME280;49809;47.418;19.080;2023-07-22T10:57:30;100403.09;;;33.45;32.64
63654;BME280;49809;47.418;19.080;2023-07-22T11:00:51;100410.84;;;32.88;32.80
63654;BME280;49809;47.418;19.080;2023-07-22T11:04:21;100401.66;;;32.25;33.66
63654;BME280;49809;47.418;19.080;2023-07-22T11:08:05;100396.87;;;32.61;34.60
63654;BME280;49809;47.418;19.080;2023-07-22T11:11:40;100403.63;;;32.28;33.88
63654;BME280;49809;47.418;19.080;2023-07-22T11:15:04;100403.22;;;33.31;32.64
63654;BME280;49809;47.418;19.080;2023-07-22T11:18:39;100394.97;;;33.27;33.24
63654;BME280;49809;47.418;19.080;2023-07-22T11:21:57;100388.12;;;34.01;32.02
63654;BME280;49809;47.418;19.080;2023-07-22T11:25:38;100382.84;;;34.17;30.39
63654;BME280;49809;47.418;19.080;2023-07-22T11:29:15;100384.12;;;33.06;31.09
63654;BME280;49809;47.418;19.080;2023-07-22T11:32:42;100385.59;;;33.76;31.06
63654;BME280;49809;47.418;19.080;2023-07-22T11:35:57;100397.63;;;33.93;28.08
63654;BME280;49809;47.418;19.080;2023-07-22T11:39:26;100383.84;;;33.48;29.58
63654;BME280;49809;47.418;19.080;2023-07-22T11:42:53;100389.09;;;32.45;31.82
63654;BME280;49809;47.418;19.080;2023-07-22T11:46:31;100389.75;;;32.77;31.47
63654;BME280;49809;47.418;19.080;2023-07-22T11:49:47;100389.94;;;32.21;31.21
63654;BME280;49809;47.418;19.080;2023-07-22T11:53:30;100388.63;;;32.61;30.46
63654;BME280;49809;47.418;19.080;2023-07-22T11:56:46;100381.25;;;32.51;30.56
63654;BME280;49809;47.418;19.080;2023-07-22T12:00:09;100385.28;;;31.50;31.83
63654;BME280;49809;47.418;19.080;2023-07-22T12:03:31;100379.78;;;31.43;31.58
63654;BME280;49809;47.418;19.080;2023-07-22T12:06:59;100379.28;;;30.92;31.40
63654;BME280;49809;47.418;19.080;2023-07-22T12:10:19;100380.13;;;31.06;32.28
63654;BME280;49809;47.418;19.080;2023-07-22T12:14:11;100374.97;;;30.84;32.45
63654;BME280;49809;47.418;19.080;2023-07-22T12:17:56;100366.44;;;32.27;31.32
63654;BME280;49809;47.418;19.080;2023-07-22T12:21:35;100353.41;;;32.63;30.96
63654;BME280;49809;47.418;19.080;2023-07-22T12:24:53;100358.69;;;31.55;30.54
63654;BME280;49809;47.418;19.080;2023-07-22T12:28:13;100368.06;;;32.03;29.56
63654;BME280;49809;47.418;19.080;2023-07-22T12:31:59;100372.78;;;31.81;30.67
63654;BME280;49809;47.418;19.080;2023-07-22T12:35:24;100354.41;;;31.46;30.61
63654;BME280;49809;47.418;19.080;2023-07-22T12:38:44;100362.56;;;31.18;30.58
63654;BME280;49809;47.418;19.080;2023-07-22T12:42:14;100360.22;;;31.06;30.55
63654;BME280;49809;47.418;19.080;2023-07-22T12:45:51;100359.88;;;30.28;32.40
63654;BME280;49809;47.418;19.080;2023-07-22T12:49:28;100345.63;;;30.59;32.27
63654;BME280;49809;47.418;19.080;2023-07-22T13:01:16;100352.84;;;29.25;35.82
63654;BME280;49809;47.418;19.080;2023-07-22T13:05:03;100346.22;;;29.26;35.70
63654;BME280;49809;47.418;19.080;2023-07-22T13:08:20;100342.88;;;28.66;36.31
63654;BME280;49809;47.418;19.080;2023-07-22T13:11:37;100331.03;;;29.25;33.50
63654;BME280;49809;47.418;19.080;2023-07-22T13:15:13;100333.75;;;28.84;35.83
63654;BME280;49809;47.418;19.080;2023-07-22T13:18:33;100323.88;;;29.10;34.91
63654;BME280;49809;47.418;19.080;2023-07-22T13:21:57;100317.81;;;28.86;34.50
63654;BME280;49809;47.418;19.080;2023-07-22T13:25:14;100325.75;;;28.09;35.43
63654;BME280;49809;47.418;19.080;2023-07-22T13:28:30;100316.81;;;28.35;35.59
63654;BME280;49809;47.418;19.080;2023-07-22T13:31:52;100320.28;;;28.05;37.32
63654;BME280;49809;47.418;19.080;2023-07-22T13:35:12;100327.88;;;28.49;37.26
63654;BME280;49809;47.418;19.080;2023-07-22T13:38:54;100323.19;;;28.79;36.47
63654;BME280;49809;47.418;19.080;2023-07-22T13:42:20;100325.44;;;28.40;36.89
63654;BME280;49809;47.418;19.080;2023-07-22T13:45:37;100325.03;;;28.72;36.51
63654;BME280;49809;47.418;19.080;2023-07-22T13:48:56;100334.12;;;28.83;36.32
63654;BME280;49809;47.418;19.080;2023-07-22T13:52:35;100338.22;;;28.70;37.05
63654;BME280;49809;47.418;19.080;2023-07-22T14:00:14;100328.63;;;27.93;36.54
63654;BME280;49809;47.418;19.080;2023-07-22T14:03:34;100326.94;;;28.38;36.25
63654;BME280;49809;47.418;19.080;2023-07-22T14:07:00;100321.97;;;28.43;36.38
63654;BME280;49809;47.418;19.080;2023-07-22T14:10:19;100319.53;;;28.35;35.75
63654;BME280;49809;47.418;19.080;2023-07-22T14:13:39;100314.84;;;28.05;35.26
63654;BME280;49809;47.418;19.080;2023-07-22T14:16:56;100323.09;;;28.42;34.62
63654;BME280;49809;47.418;19.080;2023-07-22T14:20:14;100313.59;;;28.59;34.71
63654;BME280;49809;47.418;19.080;2023-07-22T14:23:32;100314.56;;;28.44;35.53
63654;BME280;49809;47.418;19.080;2023-07-22T14:27:07;100303.62;;;28.70;34.34
63654;BME280;49809;47.418;19.080;2023-07-22T14:30:25;100297.66;;;28.61;32.33
63654;BME280;49809;47.418;19.080;2023-07-22T14:33:49;100307.97;;;28.75;33.38
63654;BME280;49809;47.418;19.080;2023-07-22T14:37:18;100300.03;;;28.66;33.86
63654;BME280;49809;47.418;19.080;2023-07-22T14:40:35;100297.66;;;28.61;34.91
63654;BME280;49809;47.418;19.080;2023-07-22T14:44:09;100293.97;;;28.76;33.85
63654;BME280;49809;47.418;19.080;2023-07-22T14:47:26;100296.59;;;28.69;32.82
63654;BME280;49809;47.418;19.080;2023-07-22T14:50:46;100291.28;;;28.46;31.88
63654;BME280;49809;47.418;19.080;2023-07-22T14:54:16;100288.66;;;28.57;31.54
63654;BME280;49809;47.418;19.080;2023-07-22T14:57:33;100292.28;;;28.68;33.41
63654;BME280;49809;47.418;19.080;2023-07-22T15:01:08;100281.44;;;28.72;33.12
63654;BME280;49809;47.418;19.080;2023-07-22T15:04:40;100285.38;;;28.41;33.77
63654;BME280;49809;47.418;19.080;2023-07-22T15:07:57;100285.03;;;28.13;35.25
63654;BME280;49809;47.418;19.080;2023-07-22T15:11:15;100286.28;;;27.92;35.14
63654;BME280;49809;47.418;19.080;2023-07-22T15:14:33;100295.13;;;27.86;35.09
63654;BME280;49809;47.418;19.080;2023-07-22T15:18:14;100297.06;;;28.12;35.99
63654;BME280;49809;47.418;19.080;2023-07-22T15:21:32;100287.19;;;28.30;34.50
63654;BME280;49809;47.418;19.080;2023-07-22T15:24:56;100281.16;;;28.47;34.97
63654;BME280;49809;47.418;19.080;2023-07-22T15:28:11;100273.06;;;28.21;33.61
63654;BME280;49809;47.418;19.080;2023-07-22T15:31:41;100279.81;;;28.67;33.73
63654;BME280;49809;47.418;19.080;2023-07-22T15:35:08;100276.94;;;28.86;33.15
63654;BME280;49809;47.418;19.080;2023-07-22T15:38:40;100289.41;;;28.87;30.67
63654;BME280;49809;47.418;19.080;2023-07-22T15:41:57;100296.28;;;28.74;30.98
63654;BME280;49809;47.418;19.080;2023-07-22T15:45:14;100290.16;;;28.84;31.12
63654;BME280;49809;47.418;19.080;2023-07-22T15:48:41;100297.87;;;28.79;31.29
63654;BME280;49809;47.418;19.080;2023-07-22T15:52:24;100296.47;;;28.95;31.08
63654;BME280;49809;47.418;19.080;2023-07-22T15:55:42;100307.56;;;29.13;31.35
63654;BME280;49809;47.418;19.080;2023-07-22T15:59:11;100295.63;;;29.28;30.98
63654;BME280;49809;47.418;19.080;2023-07-22T16:02:38;100292.03;;;29.21;30.26
63654;BME280;49809;47.418;19.080;2023-07-22T16:06:06;100297.72;;;29.02;31.50
63654;BME280;49809;47.418;19.080;2023-07-22T16:09:23;100292.97;;;28.58;31.98
63654;BME280;49809;47.418;19.080;2023-07-22T16:12:52;100291.87;;;28.33;32.13
63654;BME280;49809;47.418;19.080;2023-07-22T16:16:11;100285.47;;;27.88;33.24
63654;BME280;49809;47.418;19.080;2023-07-22T16:19:31;100283.94;;;27.42;34.86
63654;BME280;49809;47.418;19.080;2023-07-22T16:22:55;100289.72;;;27.40;34.31
63654;BME280;49809;47.418;19.080;2023-07-22T16:26:22;100296.03;;;27.21;35.02
63654;BME280;49809;47.418;19.080;2023-07-22T16:29:39;100282.34;;;27.14;35.38
63654;BME280;49809;47.418;19.080;2023-07-22T16:33:07;100273.94;;;27.23;35.54
63654;BME280;49809;47.418;19.080;2023-07-22T16:36:25;100279.50;;;27.07;35.46
63654;BME280;49809;47.418;19.080;2023-07-22T16:39:45;100272.31;;;27.18;34.99
63654;BME280;49809;47.418;19.080;2023-07-22T16:43:18;100265.06;;;27.03;35.02
63654;BME280;49809;47.418;19.080;2023-07-22T16:46:37;100286.53;;;26.89;36.06
63654;BME280;49809;47.418;19.080;2023-07-22T16:49:55;100287.63;;;26.65;36.03
63654;BME280;49809;47.418;19.080;2023-07-22T16:53:29;100287.28;;;26.48;37.00
63654;BME280;49809;47.418;19.080;2023-07-22T16:56:56;100279.84;;;26.45;37.15
63654;BME280;49809;47.418;19.080;2023-07-22T17:00:19;100281.28;;;26.38;38.08
63654;BME280;49809;47.418;19.080;2023-07-22T17:03:43;100288.09;;;26.13;38.53
63654;BME280;49809;47.418;19.080;2023-07-22T17:07:12;100287.00;;;26.33;38.64
63654;BME280;49809;47.418;19.080;2023-07-22T17:10:44;100284.87;;;26.23;38.40
63654;BME280;49809;47.418;19.080;2023-07-22T17:14:29;100276.47;;;26.13;39.65
63654;BME280;49809;47.418;19.080;2023-07-22T17:18:01;100276.72;;;26.23;38.89
63654;BME280;49809;47.418;19.080;2023-07-22T17:21:36;100269.81;;;26.10;39.76
63654;BME280;49809;47.418;19.080;2023-07-22T17:25:04;100268.16;;;26.06;41.08
63654;BME280;49809;47.418;19.080;2023-07-22T17:28:21;100279.94;;;25.94;41.17
63654;BME280;49809;47.418;19.080;2023-07-22T17:31:56;100280.38;;;25.80;41.12
63654;BME280;49809;47.418;19.080;2023-07-22T17:35:15;100281.91;;;25.78;41.48
63654;BME280;49809;47.418;19.080;2023-07-22T17:38:42;100263.56;;;25.40;41.45
63654;BME280;49809;47.418;19.080;2023-07-22T17:42:09;100263.91;;;25.38;42.52
63654;BME280;49809;47.418;19.080;2023-07-22T17:45:49;100269.31;;;25.38;42.63
63654;BME280;49809;47.418;19.080;2023-07-22T17:49:23;100277.31;;;25.31;43.04
63654;BME280;49809;47.418;19.080;2023-07-22T17:52:52;100280.41;;;25.18;43.22
63654;BME280;49809;47.418;19.080;2023-07-22T17:56:09;100287.50;;;25.06;44.05
63654;BME280;49809;47.418;19.080;2023-07-22T17:59:29;100276.22;;;25.04;44.20
63654;BME280;49809;47.418;19.080;2023-07-22T18:02:48;100283.41;;;24.85;44.00
63654;BME280;49809;47.418;19.080;2023-07-22T18:06:21;100301.94;;;24.83;44.37
63654;BME280;49809;47.418;19.080;2023-07-22T18:09:51;100296.16;;;24.68;44.85
63654;BME280;49809;47.418;19.080;2023-07-22T18:13:18;100276.66;;;24.63;45.65
63654;BME280;49809;47.418;19.080;2023-07-22T18:16:34;100285.53;;;24.48;45.86
63654;BME280;49809;47.418;19.080;2023-07-22T18:20:06;100297.53;;;24.35;46.14
63654;BME280;49809;47.418;19.080;2023-07-22T18:23:33;100303.03;;;24.26;46.47
63654;BME280;49809;47.418;19.080;2023-07-22T18:27:13;100311.19;;;24.14;46.67
63654;BME280;49809;47.418;19.080;2023-07-22T18:30:45;100300.38;;;24.02;47.05
63654;BME280;49809;47.418;19.080;2023-07-22T18:34:03;100323.38;;;23.96;47.95
63654;BME280;49809;47.418;19.080;2023-07-22T18:37:33;100316.38;;;23.95;48.31
63654;BME280;49809;47.418;19.080;2023-07-22T18:41:02;100315.50;;;23.91;48.86
63654;BME280;49809;47.418;19.080;2023-07-22T18:44:23;100306.50;;;23.87;48.32
63654;BME280;49809;47.418;19.080;2023-07-22T18:47:55;100316.19;;;23.75;49.12
63654;BME280;49809;47.418;19.080;2023-07-22T18:51:15;100319.34;;;23.65;51.48
63654;BME280;49809;47.418;19.080;2023-07-22T18:54:35;100335.31;;;23.58;50.07
63654;BME280;49809;47.418;19.080;2023-07-22T18:58:02;100353.09;;;23.47;50.35
63654;BME280;49809;47.418;19.080;2023-07-22T19:01:36;100364.75;;;23.39;50.69
63654;BME280;49809;47.418;19.080;2023-07-22T19:05:05;100367.22;;;23.44;49.87
63654;BME280;49809;47.418;19.080;2023-07-22T19:08:35;100365.53;;;23.39;50.16
63654;BME280;49809;47.418;19.080;2023-07-22T19:12:09;100381.62;;;23.36;50.46
63654;BME280;49809;47.418;19.080;2023-07-22T19:15:47;100391.53;;;23.32;51.20
63654;BME280;49809;47.418;19.080;2023-07-22T19:19:22;100400.63;;;23.27;51.41
63654;BME280;49809;47.418;19.080;2023-07-22T19:23:00;100388.56;;;23.25;50.89
63654;BME280;49809;47.418;19.080;2023-07-22T19:26:29;100393.53;;;23.23;50.82
63654;BME280;49809;47.418;19.080;2023-07-22T19:30:07;100391.47;;;23.20;50.52
63654;BME280;49809;47.418;19.080;2023-07-22T19:33:28;100389.34;;;23.13;50.35
63654;BME280;49809;47.418;19.080;2023-07-22T19:37:01;100397.97;;;23.07;51.56
63654;BME280;49809;47.418;19.080;2023-07-22T19:40:32;100411.47;;;23.07;52.67
63654;BME280;49809;47.418;19.080;2023-07-22T19:44:06;100414.13;;;22.94;53.23
63654;BME280;49809;47.418;19.080;2023-07-22T19:47:33;100405.97;;;22.82;54.61
63654;BME280;49809;47.418;19.080;2023-07-22T19:51:16;100404.78;;;22.71;54.81
63654;BME280;49809;47.418;19.080;2023-07-22T19:54:35;100400.00;;;22.68;57.98
63654;BME280;49809;47.418;19.080;2023-07-22T19:58:10;100400.88;;;22.60;57.98
63654;BME280;49809;47.418;19.080;2023-07-22T20:01:37;100413.97;;;22.49;57.65
63654;BME280;49809;47.418;19.080;2023-07-22T20:04:54;100414.34;;;22.39;58.48
63654;BME280;49809;47.418;19.080;2023-07-22T20:08:22;100413.06;;;22.37;58.77
63654;BME280;49809;47.418;19.080;2023-07-22T20:11:49;100420.91;;;22.30;59.47
63654;BME280;49809;47.418;19.080;2023-07-22T20:15:28;100420.59;;;22.23;58.14
63654;BME280;49809;47.418;19.080;2023-07-22T20:19:08;100426.00;;;22.23;60.02
63654;BME280;49809;47.418;19.080;2023-07-22T20:22:45;100429.97;;;22.25;59.46